createdAt,value
2019-01-21T00:01:39.164Z,100560.20
2019-01-21T00:05:40.789Z,100554.55
2019-01-21T00:09:42.320Z,100563.69
2019-01-21T00:13:44.061Z,100561.44
2019-01-21T00:17:45.725Z,100561.77
2019-01-21T00:21:47.854Z,100569.41
2019-01-21T00:25:50.061Z,100568.11
2019-01-21T00:29:53.228Z,100567.65
2019-01-21T00:33:55.010Z,100568.13
2019-01-21T00:37:56.709Z,100561.00
2019-01-21T00:41:58.369Z,100569.33
2019-01-21T00:46:00.762Z,100563.50
2019-01-21T00:50:02.377Z,100568.04
2019-01-21T00:54:04.068Z,100564.22
2019-01-21T00:58:05.857Z,100567.92
2019-01-21T01:02:07.583Z,100562.95
2019-01-21T01:06:09.838Z,100560.86
2019-01-21T01:10:13.337Z,100563.02
2019-01-21T01:14:14.790Z,100553.55
2019-01-21T01:18:16.422Z,100558.45
2019-01-21T01:22:17.938Z,100557.99
2019-01-21T01:26:19.523Z,100564.97
2019-01-21T01:30:22.536Z,100565.15
2019-01-21T01:34:23.797Z,100565.51
2019-01-21T01:38:24.933Z,100565.09
2019-01-21T01:42:26.275Z,100574.69
2019-01-21T01:46:27.531Z,100577.05
2019-01-21T01:50:29.387Z,100575.10
2019-01-21T01:54:30.809Z,100573.10
2019-01-21T01:58:32.239Z,100576.98
2019-01-21T02:02:33.890Z,100576.97
2019-01-21T02:06:35.215Z,100581.39
2019-01-21T02:10:37.728Z,100588.24
2019-01-21T02:14:38.939Z,100586.51
2019-01-21T02:18:39.968Z,100589.11
2019-01-21T02:22:45.654Z,100590.13
2019-01-21T02:27:05.178Z,100585.16
2019-01-21T02:31:55.822Z,100589.04
2019-01-21T02:36:26.345Z,100576.42
2019-01-21T02:41:05.353Z,100584.27
2019-01-21T02:45:31.661Z,100584.84
2019-01-21T02:49:58.151Z,100587.92
2019-01-21T02:54:18.128Z,100597.00
2019-01-21T02:59:21.393Z,100585.92
2019-01-21T03:03:51.013Z,100592.53
2019-01-21T03:08:20.969Z,100595.49
2019-01-21T03:13:07.116Z,100602.50
2019-01-21T03:17:34.300Z,100599.63
2019-01-21T03:22:12.607Z,100602.73
2019-01-21T03:27:00.874Z,100596.65
2019-01-21T03:31:44.677Z,100603.17
2019-01-21T03:36:01.078Z,100594.56
2019-01-21T03:41:01.337Z,100603.78
2019-01-21T03:45:47.809Z,100607.87
2019-01-21T03:50:48.058Z,100615.08
2019-01-21T03:54:56.673Z,100617.17
2019-01-21T03:59:29.295Z,100626.34
2019-01-21T04:04:29.237Z,100620.05
2019-01-21T04:08:59.333Z,100623.18
2019-01-21T04:13:18.378Z,100631.03
2019-01-21T04:18:07.104Z,100625.77
2019-01-21T04:22:36.326Z,100628.87
2019-01-21T04:26:49.701Z,100624.98
2019-01-21T04:31:05.680Z,100622.30
2019-01-21T04:35:36.821Z,100634.51
2019-01-21T04:40:31.036Z,100639.13
2019-01-21T04:45:15.654Z,100639.84
2019-01-21T04:49:44.405Z,100636.91
2019-01-21T04:54:32.718Z,100646.30
2019-01-21T04:59:03.768Z,100642.38
2019-01-21T05:03:40.732Z,100640.48
2019-01-21T05:08:08.093Z,100646.84
2019-01-21T05:12:50.418Z,100650.00
2019-01-21T05:17:24.941Z,100650.34
2019-01-21T05:22:15.146Z,100658.13
2019-01-21T05:26:36.729Z,100665.44
2019-01-21T05:31:13.230Z,100665.96
2019-01-21T05:35:39.103Z,100666.55
2019-01-21T05:40:25.111Z,100667.24
2019-01-21T05:45:11.357Z,100670.09
2019-01-21T05:50:01.428Z,100670.02
2019-01-21T05:54:46.095Z,100671.52
2019-01-21T05:59:26.675Z,100676.52
2019-01-21T06:03:51.422Z,100678.77
2019-01-21T06:08:48.041Z,100681.67
2019-01-21T06:13:39.631Z,100683.44
2019-01-21T06:18:25.177Z,100686.38
2019-01-21T06:23:02.363Z,100693.84
2019-01-21T06:27:42.829Z,100707.69
2019-01-21T06:32:29.973Z,100704.55
2019-01-21T06:37:05.884Z,100712.48
2019-01-21T06:41:46.011Z,100712.09
2019-01-21T06:46:42.772Z,100718.98
2019-01-21T06:51:07.235Z,100725.97
2019-01-21T06:55:36.870Z,100730.08
2019-01-21T07:00:07.337Z,100723.69
2019-01-21T07:05:06.975Z,100730.41
2019-01-21T07:09:53.151Z,100740.84
2019-01-21T07:14:40.207Z,100753.95
2019-01-21T07:19:11.110Z,100761.48
2019-01-21T07:23:50.818Z,100768.51
2019-01-21T07:28:33.779Z,100778.31
2019-01-21T07:33:04.723Z,100787.11
2019-01-21T07:37:14.099Z,100790.82
2019-01-21T07:41:53.203Z,100798.55
2019-01-21T07:46:43.201Z,100797.36
2019-01-21T07:51:40.278Z,100808.06
2019-01-21T07:56:29.451Z,100814.71
2019-01-21T08:01:14.521Z,100820.64
2019-01-21T08:05:41.239Z,100827.34
2019-01-21T08:10:21.792Z,100831.85
2019-01-21T08:14:45.699Z,100827.22
2019-01-21T08:19:24.389Z,100839.75
2019-01-21T08:24:24.861Z,100843.32
2019-01-21T08:28:52.361Z,100844.36
2019-01-21T08:33:35.035Z,100853.61
2019-01-21T08:38:35.139Z,100856.50
2019-01-21T08:43:25.491Z,100854.64
2019-01-21T08:48:11.170Z,100858.27
2019-01-21T08:52:33.432Z,100866.44
2019-01-21T08:57:08.994Z,100868.19
2019-01-21T09:01:55.612Z,100871.92
2019-01-21T09:06:38.144Z,100875.58
2019-01-21T09:11:28.043Z,100878.58
2019-01-21T09:16:09.340Z,100877.05
2019-01-21T09:20:38.035Z,100878.98
2019-01-21T09:25:00.220Z,100875.16
2019-01-21T09:29:36.926Z,100875.23
2019-01-21T09:34:34.531Z,100885.03
2019-01-21T09:39:11.663Z,100889.03
2019-01-21T09:44:08.406Z,100890.81
2019-01-21T09:48:07.791Z,100903.94
2019-01-21T09:52:10.559Z,100907.20
2019-01-21T09:56:11.777Z,100906.77
2019-01-21T10:00:17.623Z,100912.62
2019-01-21T10:04:23.650Z,100911.59
2019-01-21T10:08:49.721Z,100915.31
2019-01-21T10:13:32.289Z,100917.45
2019-01-21T10:18:15.311Z,100921.89
2019-01-21T10:23:08.069Z,100923.91
2019-01-21T10:27:22.196Z,100921.85
2019-01-21T10:32:05.143Z,100927.82
2019-01-21T10:36:47.078Z,100929.86
2019-01-21T10:41:12.319Z,100931.71
2019-01-21T10:45:44.846Z,100938.63
2019-01-21T10:50:25.625Z,100939.14
2019-01-21T10:55:13.735Z,100941.58
2019-01-21T11:00:07.266Z,100946.48
2019-01-21T11:04:48.235Z,100955.09
2019-01-21T11:09:26.784Z,100954.77
2019-01-21T11:14:26.511Z,100962.51
2019-01-21T11:19:03.034Z,100955.77
2019-01-21T11:23:21.033Z,100956.63
2019-01-21T11:28:07.393Z,100964.72
2019-01-21T11:32:33.243Z,100965.48
2019-01-21T11:37:21.504Z,100970.05
2019-01-21T11:41:56.454Z,100969.80
2019-01-21T11:46:57.204Z,100971.88
2019-01-21T11:51:24.049Z,100983.74
2019-01-21T11:55:58.598Z,100985.89
2019-01-21T12:00:38.415Z,100986.09
2019-01-21T12:05:04.296Z,100988.90
2019-01-21T12:09:39.652Z,100994.67
2019-01-21T12:14:23.683Z,101002.58
2019-01-21T12:18:42.758Z,100998.30
2019-01-21T12:23:52.142Z,100995.38
2019-01-21T12:28:14.084Z,100998.23
2019-01-21T12:32:59.189Z,101005.08
2019-01-21T12:37:22.345Z,101009.63
2019-01-21T12:42:08.265Z,101012.42
2019-01-21T12:46:39.512Z,101018.76
2019-01-21T12:51:29.830Z,101013.03
2019-01-21T12:55:58.283Z,101023.41
2019-01-21T13:00:29.266Z,101019.75
2019-01-21T13:04:46.064Z,101023.61
2019-01-21T13:09:46.337Z,101025.83
2019-01-21T13:14:27.680Z,101033.41
2019-01-21T13:19:21.529Z,101027.42
2019-01-21T13:23:52.330Z,101034.86
2019-01-21T13:28:41.464Z,101048.14
2019-01-21T13:33:12.142Z,101038.87
2019-01-21T13:37:46.155Z,101042.35
2019-01-21T13:42:22.174Z,101041.66
2019-01-21T13:47:17.175Z,101053.01
2019-01-21T13:51:45.129Z,101050.68
2019-01-21T13:56:01.466Z,101051.89
2019-01-21T14:00:23.490Z,101059.98
2019-01-21T14:05:12.834Z,101068.86
2019-01-21T14:09:51.771Z,101069.44
2019-01-21T14:14:39.862Z,101069.44
2019-01-21T14:19:18.560Z,101062.93
2019-01-21T14:23:54.161Z,101069.50
2019-01-21T14:28:38.786Z,101065.10
2019-01-21T14:33:16.347Z,101072.38
2019-01-21T14:37:55.490Z,101072.45
2019-01-21T14:42:52.534Z,101081.04
2019-01-21T14:47:59.872Z,101077.33
2019-01-21T14:52:52.530Z,101088.67
2019-01-21T14:58:31.776Z,101091.02
2019-01-21T15:02:45.602Z,101098.90
2019-01-21T15:07:04.755Z,101114.73
2019-01-21T15:12:07.921Z,101116.91
2019-01-21T15:16:25.463Z,101102.23
2019-01-21T15:20:58.433Z,101110.52
2019-01-21T15:25:45.127Z,101102.39
2019-01-21T15:30:16.806Z,101107.83
2019-01-21T15:34:59.229Z,101106.44
2019-01-21T15:39:23.084Z,101113.88
2019-01-21T15:43:51.691Z,101112.06
2019-01-21T15:48:28.015Z,101116.55
2019-01-21T15:53:04.543Z,101119.66
2019-01-21T15:57:47.375Z,101118.32
2019-01-21T16:02:28.386Z,101123.27
2019-01-21T16:06:50.685Z,101126.33
2019-01-21T16:11:25.598Z,101121.73
2019-01-21T16:16:19.546Z,101108.77
2019-01-21T16:20:45.170Z,101129.33
2019-01-21T16:25:34.730Z,101119.48
2019-01-21T16:30:06.603Z,101131.10
2019-01-21T16:34:39.307Z,101125.38
2019-01-21T16:38:58.948Z,101130.64
2019-01-21T16:42:59.927Z,101130.58
2019-01-21T16:47:00.999Z,101132.41
2019-01-21T16:51:02.069Z,101131.73
2019-01-21T16:55:03.178Z,101140.20
2019-01-21T16:59:04.430Z,101139.92
2019-01-21T17:03:05.714Z,101143.39
2019-01-21T17:07:06.959Z,101148.41
2019-01-21T17:11:08.325Z,101161.17
2019-01-21T17:15:10.236Z,101162.44
2019-01-21T17:19:11.730Z,101175.69
2019-01-21T17:23:12.811Z,101171.16
2019-01-21T17:27:14.229Z,101174.47
2019-01-21T17:31:15.609Z,101170.72
2019-01-21T17:35:17.020Z,101167.30
2019-01-21T17:39:18.144Z,101166.83
2019-01-21T17:43:19.636Z,101167.70
2019-01-21T17:47:20.925Z,101163.47
2019-01-21T17:51:22.506Z,101163.75
2019-01-21T17:55:23.688Z,101169.02
2019-01-21T17:59:25.665Z,101168.38
2019-01-21T18:03:26.856Z,101165.16
2019-01-21T18:07:28.152Z,101178.76
2019-01-21T18:11:29.875Z,101174.22
2019-01-21T18:15:31.215Z,101173.20
2019-01-21T18:19:34.316Z,101179.62
2019-01-21T18:23:35.518Z,101187.45
2019-01-21T18:27:37.340Z,101188.57
2019-01-21T18:31:38.832Z,101186.52
2019-01-21T18:35:40.380Z,101190.00
2019-01-21T18:39:41.740Z,101184.45
2019-01-21T18:43:43.204Z,101182.02
2019-01-21T18:47:45.176Z,101179.19
2019-01-21T18:51:47.335Z,101171.48
2019-01-21T18:55:49.195Z,101174.45
2019-01-21T18:59:50.364Z,101185.13
2019-01-21T19:03:51.790Z,101181.66
2019-01-21T19:07:53.762Z,101182.98
2019-01-21T19:11:56.931Z,101184.58
2019-01-21T19:15:58.246Z,101181.17
2019-01-21T19:19:59.740Z,101178.88
2019-01-21T19:24:01.283Z,101174.53
2019-01-21T19:28:02.435Z,101182.89
2019-01-21T19:32:03.697Z,101182.50
2019-01-21T19:36:05.135Z,101184.38
2019-01-21T19:40:07.790Z,101178.44
2019-01-21T19:44:09.119Z,101179.36
2019-01-21T19:48:10.479Z,101177.41
2019-01-21T19:52:11.873Z,101181.11
2019-01-21T19:56:13.193Z,101185.45
2019-01-21T20:00:17.539Z,101186.72
2019-01-21T20:04:18.769Z,101194.52
2019-01-21T20:08:20.141Z,101192.21
2019-01-21T20:12:21.398Z,101196.60
2019-01-21T20:16:22.746Z,101201.99
2019-01-21T20:20:30.965Z,101205.61
2019-01-21T20:24:32.807Z,101200.81
2019-01-21T20:28:34.039Z,101204.05
2019-01-21T20:32:36.461Z,101198.35
2019-01-21T20:36:37.838Z,101198.71
2019-01-21T20:40:39.225Z,101205.14
2019-01-21T20:44:40.523Z,101207.66
2019-01-21T20:48:41.926Z,101213.27
2019-01-21T20:52:43.206Z,101212.80
2019-01-21T20:56:44.456Z,101207.20
2019-01-21T21:00:45.713Z,101214.28
2019-01-21T21:04:47.389Z,101207.73
2019-01-21T21:08:49.394Z,101203.88
2019-01-21T21:12:51.143Z,101196.52
2019-01-21T21:16:52.657Z,101197.56
2019-01-21T21:20:54.374Z,101199.38
2019-01-21T21:24:55.888Z,101198.57
2019-01-21T21:28:57.680Z,101206.81
2019-01-21T21:33:02.153Z,101206.44
2019-01-21T21:37:03.836Z,101206.78
2019-01-21T21:41:05.330Z,101207.73
2019-01-21T21:45:09.126Z,101219.08
2019-01-21T21:49:10.471Z,101213.34
2019-01-21T21:53:11.877Z,101204.13
2019-01-21T21:57:15.456Z,101209.94
2019-01-21T22:01:23.738Z,101205.63
2019-01-21T22:05:19.959Z,101203.41
2019-01-21T22:09:21.527Z,101215.08
2019-01-21T22:13:22.866Z,101206.70
2019-01-21T22:17:24.211Z,101205.73
2019-01-21T22:21:27.211Z,101202.72
2019-01-21T22:25:28.606Z,101205.66
2019-01-21T22:29:29.853Z,101201.16
2019-01-21T22:33:31.165Z,101202.69
2019-01-21T22:37:32.435Z,101196.41
2019-01-21T22:41:34.125Z,101192.86
2019-01-21T22:45:35.495Z,101197.95
2019-01-21T22:49:36.710Z,101200.47
2019-01-21T22:53:37.903Z,101193.37
2019-01-21T22:57:39.129Z,101191.89
2019-01-21T23:01:40.309Z,101190.70
2019-01-21T23:05:41.701Z,101189.13
2019-01-21T23:09:42.828Z,101186.86
2019-01-21T23:13:44.172Z,101183.30
2019-01-21T23:17:45.543Z,101179.82
2019-01-21T23:21:46.868Z,101184.20
2019-01-21T23:25:48.573Z,101182.50
2019-01-21T23:29:49.883Z,101177.09
2019-01-21T23:33:51.099Z,101185.93
2019-01-21T23:37:52.295Z,101178.87
2019-01-21T23:41:53.494Z,101178.55
2019-01-21T23:45:54.870Z,101176.72
2019-01-21T23:49:56.029Z,101164.79
2019-01-21T23:53:57.537Z,101164.39
2019-01-21T23:57:58.793Z,101167.61
